sensor_id;sensor_type;location;lat;lon;timestamp;pressure;altitude;pressure_sealevel;temperature;humidity
54850;BME280;47660;51.334;12.396;2023-02-13T00:00:10;102415.47;;;11.33;100.00
54850;BME280;47660;51.334;12.396;2023-02-13T00:02:36;102419.59;;;11.68;100.00
54850;BME280;47660;51.334;12.396;2023-02-13T00:05:07;102412.94;;;11.29;100.00
54850;BME280;47660;51.334;12.396;2023-02-13T00:07:32;102416.41;;;11.32;100.00
54850;BME280;47660;51.334;12.396;2023-02-13T00:09:57;102413.63;;;11.35;100.00
54850;BME280;47660;51.334;12.396;2023-02-13T00:12:23;102410.22;;;11.04;100.00
54850;BME280;47660;51.334;12.396;2023-02-13T00:14:48;102413.06;;;11.25;100.00
54850;BME280;47660;51.334;12.396;2023-02-13T00:17:14;102405.84;;;11.55;100.00
54850;BME280;47660;51.334;12.396;2023-02-13T00:19:39;102402.44;;;11.52;100.00
54850;BME280;47660;51.334;12.396;2023-02-13T00:22:05;102408.09;;;11.41;100.00
54850;BME280;47660;51.334;12.396;2023-02-13T00:24:32;102403.97;;;11.32;100.00
54850;BME280;47660;51.334;12.396;2023-02-13T00:27:00;102399.09;;;11.45;100.00
54850;BME280;47660;51.334;12.396;2023-02-13T00:29:26;102405.13;;;11.76;100.00
54850;BME280;47660;51.334;12.396;2023-02-13T00:31:51;102395.09;;;11.58;100.00
54850;BME280;47660;51.334;12.396;2023-02-13T00:34:17;102392.59;;;11.79;100.00
54850;BME280;47660;51.334;12.396;2023-02-13T00:36:42;102387.56;;;11.44;100.00
54850;BME280;47660;51.334;12.396;2023-02-13T00:39:10;102392.41;;;11.84;100.00
54850;BME280;47660;51.334;12.396;2023-02-13T00:41:36;102394.78;;;11.68;100.00
54850;BME280;47660;51.334;12.396;2023-02-13T00:44:02;102404.00;;;11.57;100.00
54850;BME280;47660;51.334;12.396;2023-02-13T00:46:27;102396.59;;;11.40;100.00
54850;BME280;47660;51.334;12.396;2023-02-13T00:48:52;102390.13;;;11.48;100.00
54850;BME280;47660;51.334;12.396;2023-02-13T00:51:18;102391.06;;;11.72;100.00
54850;BME280;47660;51.334;12.396;2023-02-13T00:53:43;102390.84;;;11.78;100.00
54850;BME280;47660;51.334;12.396;2023-02-13T00:56:09;102389.03;;;11.53;100.00
54850;BME280;47660;51.334;12.396;2023-02-13T00:58:40;102396.81;;;11.85;100.00
54850;BME280;47660;51.334;12.396;2023-02-13T01:01:05;102389.31;;;11.46;100.00
54850;BME280;47660;51.334;12.396;2023-02-13T01:03:33;102388.13;;;12.05;100.00
54850;BME280;47660;51.334;12.396;2023-02-13T01:05:58;102395.91;;;11.34;100.00
54850;BME280;47660;51.334;12.396;2023-02-13T01:08:24;102394.88;;;11.38;100.00
54850;BME280;47660;51.334;12.396;2023-02-13T01:10:52;102393.22;;;11.86;100.00
54850;BME280;47660;51.334;12.396;2023-02-13T01:13:17;102395.41;;;11.74;100.00
54850;BME280;47660;51.334;12.396;2023-02-13T01:15:44;102385.13;;;11.38;100.00
54850;BME280;47660;51.334;12.396;2023-02-13T01:18:12;102401.91;;;10.85;100.00
54850;BME280;47660;51.334;12.396;2023-02-13T01:20:40;102401.25;;;11.59;100.00
54850;BME280;47660;51.334;12.396;2023-02-13T01:23:10;102402.34;;;11.53;100.00
54850;BME280;47660;51.334;12.396;2023-02-13T01:25:42;102402.56;;;11.47;100.00
54850;BME280;47660;51.334;12.396;2023-02-13T01:28:07;102395.31;;;11.25;100.00
54850;BME280;47660;51.334;12.396;2023-02-13T01:30:33;102389.50;;;11.12;100.00
54850;BME280;47660;51.334;12.396;2023-02-13T01:32:58;102392.19;;;11.12;100.00
54850;BME280;47660;51.334;12.396;2023-02-13T01:35:26;102394.25;;;11.04;100.00
54850;BME280;47660;51.334;12.396;2023-02-13T01:37:52;102394.84;;;11.12;100.00
54850;BME280;47660;51.334;12.396;2023-02-13T01:40:17;102387.59;;;10.89;100.00
54850;BME280;47660;51.334;12.396;2023-02-13T01:42:43;102392.50;;;10.75;100.00
54850;BME280;47660;51.334;12.396;2023-02-13T01:45:38;102392.50;;;11.03;100.00
54850;BME280;47660;51.334;12.396;2023-02-13T01:48:26;102387.94;;;10.80;100.00
54850;BME280;47660;51.334;12.396;2023-02-13T01:51:01;102393.56;;;10.97;100.00
54850;BME280;47660;51.334;12.396;2023-02-13T01:53:34;102384.91;;;10.91;100.00
54850;BME280;47660;51.334;12.396;2023-02-13T01:58:35;102385.81;;;11.18;100.00
54850;BME280;47660;51.334;12.396;2023-02-13T02:01:02;102378.31;;;11.03;100.00
54850;BME280;47660;51.334;12.396;2023-02-13T02:03:37;102387.13;;;10.48;100.00
54850;BME280;47660;51.334;12.396;2023-02-13T02:06:06;102382.59;;;10.80;100.00
54850;BME280;47660;51.334;12.396;2023-02-13T02:08:35;102382.34;;;10.29;100.00
54850;BME280;47660;51.334;12.396;2023-02-13T02:11:06;102376.72;;;10.38;100.00
54850;BME280;47660;51.334;12.396;2023-02-13T02:13:33;102373.38;;;10.90;100.00
54850;BME280;47660;51.334;12.396;2023-02-13T02:15:59;102375.44;;;10.82;100.00
54850;BME280;47660;51.334;12.396;2023-02-13T02:18:25;102371.16;;;10.78;100.00
54850;BME280;47660;51.334;12.396;2023-02-13T02:44:30;102352.16;;;11.15;100.00
54850;BME280;47660;51.334;12.396;2023-02-13T02:47:12;102359.88;;;10.96;100.00
54850;BME280;47660;51.334;12.396;2023-02-13T02:53:07;102365.19;;;10.96;100.00
54850;BME280;47660;51.334;12.396;2023-02-13T02:56:02;102364.31;;;11.24;100.00
54850;BME280;47660;51.334;12.396;2023-02-13T02:58:37;102365.28;;;10.95;100.00
54850;BME280;47660;51.334;12.396;2023-02-13T03:01:27;102361.25;;;11.35;100.00
54850;BME280;47660;51.334;12.396;2023-02-13T03:04:23;102363.22;;;11.30;100.00
54850;BME280;47660;51.334;12.396;2023-02-13T03:07:14;102368.94;;;11.18;100.00
54850;BME280;47660;51.334;12.396;2023-02-13T03:09:43;102361.97;;;11.13;100.00
54850;BME280;47660;51.334;12.396;2023-02-13T03:12:36;102364.38;;;10.67;100.00
54850;BME280;47660;51.334;12.396;2023-02-13T03:15:24;102365.56;;;11.39;100.00
54850;BME280;47660;51.334;12.396;2023-02-13T03:17:50;102373.19;;;10.96;100.00
54850;BME280;47660;51.334;12.396;2023-02-13T03:20:54;102374.19;;;10.65;100.00
54850;BME280;47660;51.334;12.396;2023-02-13T03:24:12;102369.41;;;10.77;100.00
54850;BME280;47660;51.334;12.396;2023-02-13T03:26:49;102368.28;;;10.55;100.00
54850;BME280;47660;51.334;12.396;2023-02-13T03:29:43;102371.75;;;10.86;100.00
54850;BME280;47660;51.334;12.396;2023-02-13T03:37:55;102373.28;;;10.35;100.00
54850;BME280;47660;51.334;12.396;2023-02-13T03:40:31;102374.22;;;10.92;100.00
54850;BME280;47660;51.334;12.396;2023-02-13T03:43:03;102382.03;;;10.38;100.00
54850;BME280;47660;51.334;12.396;2023-02-13T03:45:36;102369.66;;;10.96;100.00
54850;BME280;47660;51.334;12.396;2023-02-13T03:48:34;102375.66;;;10.46;100.00
54850;BME280;47660;51.334;12.396;2023-02-13T03:51:39;102372.19;;;10.72;100.00
54850;BME280;47660;51.334;12.396;2023-02-13T03:54:29;102374.97;;;10.39;100.00
54850;BME280;47660;51.334;12.396;2023-02-13T03:57:17;102384.19;;;10.57;100.00
54850;BME280;47660;51.334;12.396;2023-02-13T04:00:04;102384.00;;;10.32;100.00
54850;BME280;47660;51.334;12.396;2023-02-13T04:02:37;102376.88;;;10.34;100.00
54850;BME280;47660;51.334;12.396;2023-02-13T04:05:14;102392.06;;;10.30;100.00
54850;BME280;47660;51.334;12.396;2023-02-13T04:07:41;102389.50;;;10.25;100.00
54850;BME280;47660;51.334;12.396;2023-02-13T04:10:09;102394.91;;;9.91;100.00
54850;BME280;47660;51.334;12.396;2023-02-13T04:15:15;102389.41;;;10.29;100.00
54850;BME280;47660;51.334;12.396;2023-02-13T04:17:48;102378.47;;;10.09;100.00
54850;BME280;47660;51.334;12.396;2023-02-13T04:20:14;102383.53;;;10.17;100.00
54850;BME280;47660;51.334;12.396;2023-02-13T04:22:46;102383.16;;;10.61;100.00
54850;BME280;47660;51.334;12.396;2023-02-13T04:25:14;102377.78;;;10.03;100.00
54850;BME280;47660;51.334;12.396;2023-02-13T04:27:41;102388.25;;;10.37;100.00
54850;BME280;47660;51.334;12.396;2023-02-13T04:30:09;102378.22;;;10.49;100.00
54850;BME280;47660;51.334;12.396;2023-02-13T04:32:35;102377.53;;;10.10;100.00
54850;BME280;47660;51.334;12.396;2023-02-13T04:35:00;102378.59;;;10.66;100.00
54850;BME280;47660;51.334;12.396;2023-02-13T04:37:26;102379.13;;;10.48;100.00
54850;BME280;47660;51.334;12.396;2023-02-13T04:39:52;102379.22;;;10.45;100.00
54850;BME280;47660;51.334;12.396;2023-02-13T04:42:17;102383.84;;;10.68;100.00
54850;BME280;47660;51.334;12.396;2023-02-13T04:44:45;102381.97;;;10.72;100.00
54850;BME280;47660;51.334;12.396;2023-02-13T04:47:11;102383.25;;;10.58;100.00
54850;BME280;47660;51.334;12.396;2023-02-13T04:49:38;102388.16;;;10.72;100.00
54850;BME280;47660;51.334;12.396;2023-02-13T04:52:04;102377.19;;;10.83;100.00
54850;BME280;47660;51.334;12.396;2023-02-13T04:54:29;102389.16;;;10.68;100.00
54850;BME280;47660;51.334;12.396;2023-02-13T04:56:55;102382.16;;;10.65;100.00
54850;BME280;47660;51.334;12.396;2023-02-13T04:59:20;102384.69;;;10.08;100.00
54850;BME280;47660;51.334;12.396;2023-02-13T05:01:46;102385.81;;;10.31;100.00
54850;BME280;47660;51.334;12.396;2023-02-13T05:04:11;102383.09;;;10.33;100.00
54850;BME280;47660;51.334;12.396;2023-02-13T05:06:40;102387.25;;;10.11;100.00
54850;BME280;47660;51.334;12.396;2023-02-13T05:09:09;102382.47;;;9.93;100.00
54850;BME280;47660;51.334;12.396;2023-02-13T05:11:37;102388.91;;;10.16;100.00
54850;BME280;47660;51.334;12.396;2023-02-13T05:14:02;102391.41;;;9.90;100.00
54850;BME280;47660;51.334;12.396;2023-02-13T05:16:28;102387.75;;;9.61;100.00
54850;BME280;47660;51.334;12.396;2023-02-13T05:18:53;102390.31;;;9.98;100.00
54850;BME280;47660;51.334;12.396;2023-02-13T05:21:20;102381.59;;;10.24;100.00
54850;BME280;47660;51.334;12.396;2023-02-13T05:24:03;102383.38;;;10.23;100.00
54850;BME280;47660;51.334;12.396;2023-02-13T05:26:31;102389.56;;;10.24;100.00
54850;BME280;47660;51.334;12.396;2023-02-13T05:28:56;102385.34;;;10.48;100.00
54850;BME280;47660;51.334;12.396;2023-02-13T05:31:41;102381.03;;;10.13;100.00
54850;BME280;47660;51.334;12.396;2023-02-13T05:34:06;102372.88;;;10.50;100.00
54850;BME280;47660;51.334;12.396;2023-02-13T05:36:34;102374.81;;;10.74;100.00
54850;BME280;47660;51.334;12.396;2023-02-13T05:39:00;102378.75;;;10.60;100.00
54850;BME280;47660;51.334;12.396;2023-02-13T05:41:25;102372.25;;;10.40;100.00
54850;BME280;47660;51.334;12.396;2023-02-13T05:43:58;102376.09;;;10.60;100.00
54850;BME280;47660;51.334;12.396;2023-02-13T05:46:23;102370.50;;;10.69;100.00
54850;BME280;47660;51.334;12.396;2023-02-13T05:48:51;102373.38;;;10.32;100.00
54850;BME280;47660;51.334;12.396;2023-02-13T05:51:20;102378.78;;;10.29;100.00
54850;BME280;47660;51.334;12.396;2023-02-13T05:53:46;102372.31;;;10.07;100.00
54850;BME280;47660;51.334;12.396;2023-02-13T05:56:13;102382.78;;;10.12;100.00
54850;BME280;47660;51.334;12.396;2023-02-13T05:58:38;102386.66;;;10.33;100.00
54850;BME280;47660;51.334;12.396;2023-02-13T06:01:06;102381.94;;;10.11;100.00
54850;BME280;47660;51.334;12.396;2023-02-13T06:03:34;102380.13;;;10.14;100.00
54850;BME280;47660;51.334;12.396;2023-02-13T06:06:01;102387.44;;;10.05;100.00
54850;BME280;47660;51.334;12.396;2023-02-13T06:08:26;102380.16;;;10.44;100.00
54850;BME280;47660;51.334;12.396;2023-02-13T06:10:55;102385.03;;;10.28;100.00
54850;BME280;47660;51.334;12.396;2023-02-13T06:13:21;102376.47;;;10.48;100.00
54850;BME280;47660;51.334;12.396;2023-02-13T06:15:47;102380.22;;;10.42;100.00
54850;BME280;47660;51.334;12.396;2023-02-13T06:18:15;102373.66;;;10.22;100.00
54850;BME280;47660;51.334;12.396;2023-02-13T06:20:45;102385.25;;;10.51;100.00
54850;BME280;47660;51.334;12.396;2023-02-13T06:23:11;102390.03;;;10.68;100.00
54850;BME280;47660;51.334;12.396;2023-02-13T06:25:40;102391.50;;;10.49;100.00
54850;BME280;47660;51.334;12.396;2023-02-13T06:28:05;102385.75;;;10.63;100.00
54850;BME280;47660;51.334;12.396;2023-02-13T06:30:31;102388.25;;;10.37;100.00
54850;BME280;47660;51.334;12.396;2023-02-13T06:33:00;102383.09;;;10.63;100.00
54850;BME280;47660;51.334;12.396;2023-02-13T06:35:26;102379.63;;;10.31;100.00
54850;BME280;47660;51.334;12.396;2023-02-13T06:37:57;102387.19;;;10.75;100.00
54850;BME280;47660;51.334;12.396;2023-02-13T06:40:22;102383.66;;;9.83;100.00
54850;BME280;47660;51.334;12.396;2023-02-13T06:42:48;102388.59;;;10.26;100.00
54850;BME280;47660;51.334;12.396;2023-02-13T06:45:14;102390.16;;;10.34;100.00
54850;BME280;47660;51.334;12.396;2023-02-13T06:47:44;102390.56;;;10.51;100.00
54850;BME280;47660;51.334;12.396;2023-02-13T06:50:12;102383.19;;;10.88;100.00
54850;BME280;47660;51.334;12.396;2023-02-13T06:52:37;102390.56;;;10.51;100.00
54850;BME280;47660;51.334;12.396;2023-02-13T06:55:06;102399.88;;;10.35;100.00
54850;BME280;47660;51.334;12.396;2023-02-13T06:57:31;102401.41;;;10.74;100.00
54850;BME280;47660;51.334;12.396;2023-02-13T06:59:59;102392.06;;;10.60;100.00
54850;BME280;47660;51.334;12.396;2023-02-13T07:02:24;102393.88;;;10.60;100.00
54850;BME280;47660;51.334;12.396;2023-02-13T07:04:50;102393.44;;;10.12;100.00
54850;BME280;47660;51.334;12.396;2023-02-13T07:07:15;102398.22;;;10.91;100.00
54850;BME280;47660;51.334;12.396;2023-02-13T07:09:41;102394.84;;;10.84;100.00
54850;BME280;47660;51.334;12.396;2023-02-13T07:12:08;102410.97;;;10.79;100.00
54850;BME280;47660;51.334;12.396;2023-02-13T07:14:34;102417.88;;;10.25;100.00
54850;BME280;47660;51.334;12.396;2023-02-13T07:16:59;102407.78;;;10.68;100.00
54850;BME280;47660;51.334;12.396;2023-02-13T07:19:25;102415.25;;;10.55;100.00
54850;BME280;47660;51.334;12.396;2023-02-13T07:21:50;102412.25;;;10.96;100.00
54850;BME280;47660;51.334;12.396;2023-02-13T07:24:16;102416.13;;;10.84;100.00
54850;BME280;47660;51.334;12.396;2023-02-13T07:26:41;102420.19;;;10.06;100.00
54850;BME280;47660;51.334;12.396;2023-02-13T07:29:07;102418.47;;;10.35;100.00
54850;BME280;47660;51.334;12.396;2023-02-13T07:31:32;102412.25;;;10.96;100.00
54850;BME280;47660;51.334;12.396;2023-02-13T07:33:59;102432.50;;;10.72;100.00
54850;BME280;47660;51.334;12.396;2023-02-13T07:36:25;102426.88;;;11.09;100.00
54850;BME280;47660;51.334;12.396;2023-02-13T07:38:51;102425.84;;;11.13;100.00
54850;BME280;47660;51.334;12.396;2023-02-13T07:41:16;102422.63;;;11.04;100.00
54850;BME280;47660;51.334;12.396;2023-02-13T07:43:41;102426.84;;;11.11;100.00
54850;BME280;47660;51.334;12.396;2023-02-13T07:46:09;102421.50;;;11.38;100.00
54850;BME280;47660;51.334;12.396;2023-02-13T07:48:35;102432.25;;;10.79;100.00
54850;BME280;47660;51.334;12.396;2023-02-13T07:51:02;102428.50;;;10.87;100.00
54850;BME280;47660;51.334;12.396;2023-02-13T07:53:28;102433.22;;;10.77;100.00
54850;BME280;47660;51.334;12.396;2023-02-13T07:55:56;102424.13;;;10.84;100.00
54850;BME280;47660;51.334;12.396;2023-02-13T07:58:24;102429.34;;;11.15;100.00
54850;BME280;47660;51.334;12.396;2023-02-13T08:00:49;102434.09;;;10.47;100.00
54850;BME280;47660;51.334;12.396;2023-02-13T08:03:18;102427.09;;;11.03;100.00
54850;BME280;47660;51.334;12.396;2023-02-13T08:05:46;102435.69;;;10.54;100.00
54850;BME280;47660;51.334;12.396;2023-02-13T08:08:15;102435.84;;;10.78;100.00
54850;BME280;47660;51.334;12.396;2023-02-13T08:10:41;102432.34;;;11.05;100.00
54850;BME280;47660;51.334;12.396;2023-02-13T08:13:25;102436.31;;;10.91;100.00
54850;BME280;47660;51.334;12.396;2023-02-13T08:15:53;102439.03;;;10.90;100.00
54850;BME280;47660;51.334;12.396;2023-02-13T08:18:19;102448.41;;;10.43;100.00
54850;BME280;47660;51.334;12.396;2023-02-13T08:20:44;102446.34;;;10.53;100.00
54850;BME280;47660;51.334;12.396;2023-02-13T08:23:10;102442.38;;;10.96;100.00
54850;BME280;47660;51.334;12.396;2023-02-13T08:25:37;102444.19;;;10.66;100.00
54850;BME280;47660;51.334;12.396;2023-02-13T08:28:03;102429.34;;;11.15;100.00
54850;BME280;47660;51.334;12.396;2023-02-13T08:30:29;102431.97;;;11.17;100.00
54850;BME280;47660;51.334;12.396;2023-02-13T08:32:55;102432.56;;;11.52;100.00
54850;BME280;47660;51.334;12.396;2023-02-13T08:35:22;102431.72;;;11.25;100.00
54850;BME280;47660;51.334;12.396;2023-02-13T08:37:51;102434.38;;;10.96;100.00
54850;BME280;47660;51.334;12.396;2023-02-13T08:40:16;102445.91;;;11.25;100.00
54850;BME280;47660;51.334;12.396;2023-02-13T08:42:44;102444.09;;;10.37;100.00
54850;BME280;47660;51.334;12.396;2023-02-13T08:45:10;102432.56;;;10.07;100.00
54850;BME280;47660;51.334;12.396;2023-02-13T08:47:38;102442.31;;;10.69;100.00
54850;BME280;47660;51.334;12.396;2023-02-13T08:50:04;102447.16;;;10.85;100.00
54850;BME280;47660;51.334;12.396;2023-02-13T08:52:33;102444.78;;;10.46;100.00
54850;BME280;47660;51.334;12.396;2023-02-13T08:54:59;102446.06;;;10.62;100.00
54850;BME280;47660;51.334;12.396;2023-02-13T08:57:24;102435.88;;;10.47;100.00
54850;BME280;47660;51.334;12.396;2023-02-13T08:59:50;102441.91;;;10.53;100.00
54850;BME280;47660;51.334;12.396;2023-02-13T09:02:15;102453.09;;;10.33;100.00
54850;BME280;47660;51.334;12.396;2023-02-13T09:04:41;102452.53;;;10.53;100.00
54850;BME280;47660;51.334;12.396;2023-02-13T09:07:06;102447.63;;;10.69;100.00
54850;BME280;47660;51.334;12.396;2023-02-13T09:09:32;102459.25;;;10.35;100.00
54850;BME280;47660;51.334;12.396;2023-02-13T09:11:57;102454.28;;;10.54;100.00
54850;BME280;47660;51.334;12.396;2023-02-13T09:14:23;102449.34;;;11.00;100.00
54850;BME280;47660;51.334;12.396;2023-02-13T09:16:49;102454.84;;;10.94;100.00
54850;BME280;47660;51.334;12.396;2023-02-13T09:19:15;102453.28;;;10.59;100.00
54850;BME280;47660;51.334;12.396;2023-02-13T09:21:40;102455.72;;;10.65;100.00
54850;BME280;47660;51.334;12.396;2023-02-13T09:24:09;102456.41;;;10.42;100.00
54850;BME280;47660;51.334;12.396;2023-02-13T09:26:35;102464.59;;;10.34;100.00
54850;BME280;47660;51.334;12.396;2023-02-13T09:29:03;102462.69;;;10.70;100.00
54850;BME280;47660;51.334;12.396;2023-02-13T09:31:28;102460.91;;;10.06;100.00
54850;BME280;47660;51.334;12.396;2023-02-13T09:33:54;102456.09;;;10.21;100.00
54850;BME280;47660;51.334;12.396;2023-02-13T09:36:22;102455.56;;;10.08;100.00
54850;BME280;47660;51.334;12.396;2023-02-13T09:38:52;102454.41;;;10.50;100.00
54850;BME280;47660;51.334;12.396;2023-02-13T09:41:36;102458.50;;;10.90;100.00
54850;BME280;47660;51.334;12.396;2023-02-13T09:44:24;102460.16;;;11.23;100.00
54850;BME280;47660;51.334;12.396;2023-02-13T09:52:38;102466.81;;;10.81;100.00
54850;BME280;47660;51.334;12.396;2023-02-13T09:57:59;102470.88;;;11.21;100.00
54850;BME280;47660;51.334;12.396;2023-02-13T10:00:43;102458.03;;;10.77;100.00
54850;BME280;47660;51.334;12.396;2023-02-13T10:03:28;102470.59;;;10.42;100.00
54850;BME280;47660;51.334;12.396;2023-02-13T10:16:21;102464.91;;;10.23;100.00
54850;BME280;47660;51.334;12.396;2023-02-13T10:21:46;102460.53;;;10.20;100.00
54850;BME280;47660;51.334;12.396;2023-02-13T10:24:52;102451.16;;;10.07;100.00
54850;BME280;47660;51.334;12.396;2023-02-13T10:27:24;102448.00;;;9.92;100.00
54850;BME280;47660;51.334;12.396;2023-02-13T10:29:57;102454.66;;;10.09;100.00
54850;BME280;47660;51.334;12.396;2023-02-13T10:35:44;102455.56;;;10.99;100.00
54850;BME280;47660;51.334;12.396;2023-02-13T10:38:21;102450.25;;;10.08;100.00
54850;BME280;47660;51.334;12.396;2023-02-13T10:44:18;102444.09;;;10.97;100.00
54850;BME280;47660;51.334;12.396;2023-02-13T10:54:55;102431.59;;;10.73;100.00
54850;BME280;47660;51.334;12.396;2023-02-13T11:00:52;102416.72;;;10.65;100.00
54850;BME280;47660;51.334;12.396;2023-02-13T11:03:24;102421.09;;;10.96;100.00
54850;BME280;47660;51.334;12.396;2023-02-13T11:05:55;102415.78;;;11.50;100.00
54850;BME280;47660;51.334;12.396;2023-02-13T11:08:39;102413.84;;;11.28;100.00
54850;BME280;47660;51.334;12.396;2023-02-13T11:11:29;102412.84;;;11.58;100.00
54850;BME280;47660;51.334;12.396;2023-02-13T11:16:52;102405.81;;;10.45;100.00
54850;BME280;47660;51.334;12.396;2023-02-13T11:19:31;102411.34;;;10.67;100.00
54850;BME280;47660;51.334;12.396;2023-02-13T11:22:07;102409.50;;;10.69;100.00
54850;BME280;47660;51.334;12.396;2023-02-13T11:24:41;102409.91;;;10.85;100.00
54850;BME280;47660;51.334;12.396;2023-02-13T11:27:11;102407.03;;;10.63;100.00
54850;BME280;47660;51.334;12.396;2023-02-13T11:29:55;102404.44;;;10.61;100.00
54850;BME280;47660;51.334;12.396;2023-02-13T11:32:23;102410.69;;;10.60;100.00
54850;BME280;47660;51.334;12.396;2023-02-13T11:34:49;102404.59;;;11.40;100.00
54850;BME280;47660;51.334;12.396;2023-02-13T11:37:41;102397.34;;;11.44;100.00
54850;BME280;47660;51.334;12.396;2023-02-13T11:40:28;102402.78;;;11.14;100.00
54850;BME280;47660;51.334;12.396;2023-02-13T11:42:54;102403.41;;;11.74;100.00
54850;BME280;47660;51.334;12.396;2023-02-13T11:45:22;102409.16;;;11.08;100.00
54850;BME280;47660;51.334;12.396;2023-02-13T11:47:55;102403.22;;;11.28;100.00
54850;BME280;47660;51.334;12.396;2023-02-13T11:50:23;102403.38;;;11.76;100.00
54850;BME280;47660;51.334;12.396;2023-02-13T11:55:35;102386.00;;;11.64;100.00
54850;BME280;47660;51.334;12.396;2023-02-13T12:00:40;102389.94;;;11.27;100.00
54850;BME280;47660;51.334;12.396;2023-02-13T12:08:36;102397.59;;;10.82;100.00
54850;BME280;47660;51.334;12.396;2023-02-13T12:13:50;102400.03;;;11.17;100.00
54850;BME280;47660;51.334;12.396;2023-02-13T12:18:58;102392.81;;;11.98;100.00
54850;BME280;47660;51.334;12.396;2023-02-13T12:21:35;102391.41;;;11.63;100.00
54850;BME280;47660;51.334;12.396;2023-02-13T12:30:14;102385.69;;;11.21;100.00
54850;BME280;47660;51.334;12.396;2023-02-13T12:41:37;102369.72;;;11.21;100.00
54850;BME280;47660;51.334;12.396;2023-02-13T12:47:03;102363.66;;;11.43;100.00
54850;BME280;47660;51.334;12.396;2023-02-13T12:52:55;102357.91;;;11.81;100.00
54850;BME280;47660;51.334;12.396;2023-02-13T13:00:56;102358.94;;;11.77;100.00
54850;BME280;47660;51.334;12.396;2023-02-13T13:03:45;102364.84;;;11.34;100.00
54850;BME280;47660;51.334;12.396;2023-02-13T13:17:14;102340.56;;;11.93;100.00
54850;BME280;47660;51.334;12.396;2023-02-13T13:19:55;102345.00;;;11.43;100.00
54850;BME280;47660;51.334;12.396;2023-02-13T13:27:52;102345.19;;;11.87;100.00
54850;BME280;47660;51.334;12.396;2023-02-13T13:30:29;102343.69;;;11.80;100.00
54850;BME280;47660;51.334;12.396;2023-02-13T13:33:14;102336.59;;;11.81;100.00
54850;BME280;47660;51.334;12.396;2023-02-13T13:35:52;102336.25;;;11.90;100.00
54850;BME280;47660;51.334;12.396;2023-02-13T13:44:16;102342.09;;;11.51;100.00
54850;BME280;47660;51.334;12.396;2023-02-13T13:49:51;102336.34;;;11.87;100.00
54850;BME280;47660;51.334;12.396;2023-02-13T13:52:32;102334.78;;;11.81;100.00
54850;BME280;47660;51.334;12.396;2023-02-13T13:54:59;102328.50;;;12.31;100.00
54850;BME280;47660;51.334;12.396;2023-02-13T14:00:28;102337.47;;;11.56;100.00
54850;BME280;47660;51.334;12.396;2023-02-13T14:08:01;102341.72;;;11.85;100.00
54850;BME280;47660;51.334;12.396;2023-02-13T14:17:59;102339.97;;;11.61;100.00
54850;BME280;47660;51.334;12.396;2023-02-13T14:20:35;102344.28;;;10.85;100.00
54850;BME280;47660;51.334;12.396;2023-02-13T14:23:16;102339.69;;;10.91;100.00
54850;BME280;47660;51.334;12.396;2023-02-13T14:25:45;102339.72;;;11.16;100.00
54850;BME280;47660;51.334;12.396;2023-02-13T14:28:24;102339.78;;;10.88;100.00
54850;BME280;47660;51.334;12.396;2023-02-13T14:31:04;102336.81;;;10.97;100.00
54850;BME280;47660;51.334;12.396;2023-02-13T14:33:31;102340.25;;;11.00;100.00
54850;BME280;47660;51.334;12.396;2023-02-13T14:38:25;102327.50;;;11.36;100.00
54850;BME280;47660;51.334;12.396;2023-02-13T14:40:54;102337.88;;;11.18;100.00
54850;BME280;47660;51.334;12.396;2023-02-13T14:46:36;102335.78;;;11.28;100.00
54850;BME280;47660;51.334;12.396;2023-02-13T14:51:49;102333.19;;;11.77;100.00
54850;BME280;47660;51.334;12.396;2023-02-13T14:56:52;102330.16;;;11.86;100.00
54850;BME280;47660;51.334;12.396;2023-02-13T14:59:23;102331.28;;;12.28;100.00
54850;BME280;47660;51.334;12.396;2023-02-13T15:01:58;102329.09;;;11.67;100.00
54850;BME280;47660;51.334;12.396;2023-02-13T15:04:30;102321.97;;;11.67;100.00
54850;BME280;47660;51.334;12.396;2023-02-13T15:07:01;102317.53;;;11.68;100.00
54850;BME280;47660;51.334;12.396;2023-02-13T15:09:37;102321.63;;;11.27;100.00
54850;BME280;47660;51.334;12.396;2023-02-13T15:12:23;102311.91;;;11.25;100.00
54850;BME280;47660;51.334;12.396;2023-02-13T15:14:48;102311.75;;;11.04;100.00
54850;BME280;47660;51.334;12.396;2023-02-13T15:17:25;102307.59;;;10.95;100.00
54850;BME280;47660;51.334;12.396;2023-02-13T15:20:07;102305.50;;;11.05;100.00
54850;BME280;47660;51.334;12.396;2023-02-13T15:22:45;102300.41;;;11.24;100.00
54850;BME280;47660;51.334;12.396;2023-02-13T15:25:33;102294.53;;;11.40;100.00
54850;BME280;47660;51.334;12.396;2023-02-13T15:28:01;102295.81;;;11.03;100.00
54850;BME280;47660;51.334;12.396;2023-02-13T15:30:30;102295.09;;;11.24;100.00
54850;BME280;47660;51.334;12.396;2023-02-13T15:32:58;102297.50;;;10.51;100.00
54850;BME280;47660;51.334;12.396;2023-02-13T15:35:33;102282.94;;;10.90;100.00
54850;BME280;47660;51.334;12.396;2023-02-13T15:40:43;102293.19;;;10.76;100.00
54850;BME280;47660;51.334;12.396;2023-02-13T15:43:29;102290.56;;;10.47;100.00
54850;BME280;47660;51.334;12.396;2023-02-13T15:45:56;102281.00;;;11.21;100.00